This demonstration page uses our WeatherBlox Daily Observations layout. Learn more.

Left ArrowRight Arrow

36.17497, -115.13722

Hourly Observations for October 28, 2016

Temp ( °F °C ) Dew Point ( °F °C ) Humidity (%) Winds ( mph kmh ) Pressure ( in mb ) Visibility ( mi km ) Precip ( " mm )
12:53 am 00:53 Clear 69 20.6 53 11.7 57 57 ESE 7 11 29.91 1013 10 16.0934 0 0
1:53 am 01:53 Clear 68 20 52 11.1 57 57 SW 3 6 29.9 1013 10 16.0934 0 0
2:53 am 02:53 Clear 66 18.9 52 11.1 61 61 Calm 29.89 1012 10 16.0934 0 0
3:53 am 03:53 Clear 65 18.3 53 11.7 66 66 N 5 7 29.88 1012 10 16.0934 0 0
4:53 am 04:53 Clear 64 17.8 53 11.7 68 68 Calm 29.88 1012 10 16.0934 0 0
5:53 am 05:53 Clear 63 17.2 53 11.7 70 70 WNW 5 7 29.89 1012 10 16.0934 0 0
6:53 am 06:53 Clear 62 16.7 53 11.7 73 73 NW 3 6 29.9 1012 10 16.0934 0 0
7:53 am 07:53 Sunny 65 18.3 53 11.7 66 66 WNW 5 7 29.92 1013 10 16.0934 0 0
8:53 am 08:53 Mostly Cloudy 68 20 52 11.1 57 57 W 3 6 29.95 1014 10 16.0934 0 0
9:53 am 09:53 Mostly Cloudy 68 20 54 12.2 61 61 E 3 6 29.94 1014 10 16.0934 0 0
10:53 am 10:53 Mostly Sunny 71 21.7 53 11.7 53 53 N 5 7 29.93 1014 10 16.0934 0 0
11:53 am 11:53 Sunny 74 23.3 53 11.7 48 48 ENE 3 6 29.92 1013 10 16.0934 0 0
12:53 pm 12:53 Sunny 77 25 50 10 39 39 SE 9 15 29.9 1012 10 16.0934 0 0
1:53 pm 13:53 Mostly Cloudy 78 25.6 49 9.4 36 36 ESE 8 13 29.89 1012 10 16.0934 0 0
2:53 pm 14:53 Cloudy 73 22.8 54 12.2 51 51 SW 7 11 29.9 1013 10 16.0934 0 0
3:53 pm 15:53 Mostly Cloudy 75 23.9 53 11.7 46 46 E 6 9 29.89 1012 10 16.0934 0 0
4:53 pm 16:53 Partly Cloudy 74 23.3 54 12.2 50 50 NE 6 9 29.89 1012 10 16.0934 0 0
5:53 pm 17:53 Mostly Clear 74 23.3 53 11.7 48 48 ENE 3 6 29.9 1012 10 16.0934 0 0
6:53 pm 18:53 Mostly Cloudy 73 22.8 52 11.1 48 48 Calm 29.92 1013 10 16.0934 0 0
7:53 pm 19:53 Clear 71 21.7 53 11.7 53 53 ESE 3 6 29.93 1014 10 16.0934 0 0
8:53 pm 20:53 Clear 72 22.2 50 10 46 46 Calm 29.93 1014 10 16.0934 0 0
9:53 pm 21:53 Clear 71 21.7 50 10 47 47 WSW 7 11 29.95 1014 10 16.0934 0 0
10:53 pm 22:53 Clear 71 21.7 50 10 47 47 SSW 7 11 29.96 1015 10 16.0934 0 0
11:53 pm 23:53 Clear 67 19.4 50 10 55 55 S 7 11 29.96 1015 10 16.0934 0 0

Powered by AerisWeather